sensor_id;sensor_type;location;lat;lon;timestamp;P1;durP1;ratioP1;P2;durP2;ratioP2
76727;SDS011;65652;53.132;18.026;2023-05-07T00:00:37;10.20;;;5.50;;
76727;SDS011;65652;53.132;18.026;2023-05-07T00:03:19;10.70;;;5.70;;
76727;SDS011;65652;53.132;18.026;2023-05-07T00:05:46;12.70;;;5.50;;
76727;SDS011;65652;53.132;18.026;2023-05-07T00:08:13;12.70;;;5.50;;
76727;SDS011;65652;53.132;18.026;2023-05-07T00:10:40;10.40;;;5.10;;
76727;SDS011;65652;53.132;18.026;2023-05-07T00:13:07;12.30;;;6.10;;
76727;SDS011;65652;53.132;18.026;2023-05-07T00:15:34;12.80;;;6.60;;
76727;SDS011;65652;53.132;18.026;2023-05-07T00:18:01;12.00;;;5.90;;
76727;SDS011;65652;53.132;18.026;2023-05-07T00:20:28;11.60;;;5.10;;
76727;SDS011;65652;53.132;18.026;2023-05-07T00:22:54;11.80;;;5.80;;
76727;SDS011;65652;53.132;18.026;2023-05-07T00:25:21;11.50;;;5.70;;
76727;SDS011;65652;53.132;18.026;2023-05-07T00:27:48;12.90;;;5.90;;
76727;SDS011;65652;53.132;18.026;2023-05-07T00:30:15;12.20;;;6.60;;
76727;SDS011;65652;53.132;18.026;2023-05-07T00:32:42;14.30;;;6.30;;
76727;SDS011;65652;53.132;18.026;2023-05-07T00:35:11;13.60;;;7.00;;
76727;SDS011;65652;53.132;18.026;2023-05-07T00:37:39;14.10;;;7.30;;
76727;SDS011;65652;53.132;18.026;2023-05-07T00:40:06;17.30;;;7.60;;
76727;SDS011;65652;53.132;18.026;2023-05-07T00:42:34;17.20;;;7.60;;
76727;SDS011;65652;53.132;18.026;2023-05-07T00:45:01;14.30;;;7.30;;
76727;SDS011;65652;53.132;18.026;2023-05-07T00:47:29;14.90;;;7.40;;
76727;SDS011;65652;53.132;18.026;2023-05-07T00:49:56;15.10;;;7.20;;
76727;SDS011;65652;53.132;18.026;2023-05-07T00:52:24;15.00;;;7.40;;
76727;SDS011;65652;53.132;18.026;2023-05-07T00:54:52;18.00;;;8.30;;
76727;SDS011;65652;53.132;18.026;2023-05-07T00:57:20;15.60;;;7.50;;
76727;SDS011;65652;53.132;18.026;2023-05-07T00:59:48;14.30;;;7.60;;
76727;SDS011;65652;53.132;18.026;2023-05-07T01:02:16;15.80;;;8.40;;
76727;SDS011;65652;53.132;18.026;2023-05-07T01:04:43;15.90;;;8.90;;
76727;SDS011;65652;53.132;18.026;2023-05-07T01:07:10;16.50;;;8.40;;
76727;SDS011;65652;53.132;18.026;2023-05-07T01:09:37;14.30;;;7.90;;
76727;SDS011;65652;53.132;18.026;2023-05-07T01:12:04;14.80;;;7.70;;
76727;SDS011;65652;53.132;18.026;2023-05-07T01:14:33;17.20;;;8.00;;
76727;SDS011;65652;53.132;18.026;2023-05-07T01:17:01;14.10;;;7.60;;
76727;SDS011;65652;53.132;18.026;2023-05-07T01:19:28;14.30;;;7.40;;
76727;SDS011;65652;53.132;18.026;2023-05-07T01:22:00;15.20;;;8.60;;
76727;SDS011;65652;53.132;18.026;2023-05-07T01:24:31;15.90;;;8.10;;
76727;SDS011;65652;53.132;18.026;2023-05-07T01:29:30;15.30;;;7.40;;
76727;SDS011;65652;53.132;18.026;2023-05-07T01:31:57;16.20;;;7.90;;
76727;SDS011;65652;53.132;18.026;2023-05-07T01:34:27;15.90;;;8.00;;
76727;SDS011;65652;53.132;18.026;2023-05-07T01:36:57;16.50;;;8.10;;
76727;SDS011;65652;53.132;18.026;2023-05-07T01:39:26;17.10;;;8.30;;
76727;SDS011;65652;53.132;18.026;2023-05-07T01:41:54;16.60;;;7.70;;
76727;SDS011;65652;53.132;18.026;2023-05-07T01:44:23;15.80;;;7.90;;
76727;SDS011;65652;53.132;18.026;2023-05-07T01:46:50;15.90;;;8.40;;
76727;SDS011;65652;53.132;18.026;2023-05-07T01:49:18;16.90;;;8.60;;
76727;SDS011;65652;53.132;18.026;2023-05-07T01:51:45;18.60;;;8.60;;
76727;SDS011;65652;53.132;18.026;2023-05-07T01:54:12;19.60;;;8.50;;
76727;SDS011;65652;53.132;18.026;2023-05-07T01:56:39;17.30;;;8.70;;
76727;SDS011;65652;53.132;18.026;2023-05-07T01:59:06;18.40;;;9.90;;
76727;SDS011;65652;53.132;18.026;2023-05-07T02:01:33;18.80;;;9.20;;
76727;SDS011;65652;53.132;18.026;2023-05-07T02:04:01;17.30;;;8.90;;
76727;SDS011;65652;53.132;18.026;2023-05-07T02:06:28;16.20;;;8.60;;
76727;SDS011;65652;53.132;18.026;2023-05-07T02:09:00;19.60;;;9.80;;
76727;SDS011;65652;53.132;18.026;2023-05-07T02:11:28;16.60;;;9.00;;
76727;SDS011;65652;53.132;18.026;2023-05-07T02:13:55;17.70;;;8.60;;
76727;SDS011;65652;53.132;18.026;2023-05-07T02:16:22;20.50;;;9.10;;
76727;SDS011;65652;53.132;18.026;2023-05-07T02:18:50;16.70;;;8.20;;
76727;SDS011;65652;53.132;18.026;2023-05-07T02:21:17;16.80;;;8.70;;
76727;SDS011;65652;53.132;18.026;2023-05-07T02:23:44;18.40;;;8.70;;
76727;SDS011;65652;53.132;18.026;2023-05-07T02:26:12;18.10;;;8.50;;
76727;SDS011;65652;53.132;18.026;2023-05-07T02:28:39;18.30;;;9.20;;
76727;SDS011;65652;53.132;18.026;2023-05-07T02:31:06;17.80;;;9.20;;
76727;SDS011;65652;53.132;18.026;2023-05-07T02:33:33;17.70;;;8.80;;
76727;SDS011;65652;53.132;18.026;2023-05-07T02:36:08;17.70;;;8.80;;
76727;SDS011;65652;53.132;18.026;2023-05-07T02:38:41;17.50;;;8.60;;
76727;SDS011;65652;53.132;18.026;2023-05-07T02:41:08;16.40;;;9.00;;
76727;SDS011;65652;53.132;18.026;2023-05-07T02:43:35;17.20;;;8.60;;
76727;SDS011;65652;53.132;18.026;2023-05-07T02:46:02;15.30;;;8.00;;
76727;SDS011;65652;53.132;18.026;2023-05-07T02:48:35;18.30;;;8.60;;
76727;SDS011;65652;53.132;18.026;2023-05-07T02:51:02;17.60;;;8.90;;
76727;SDS011;65652;53.132;18.026;2023-05-07T02:53:31;19.20;;;9.60;;
76727;SDS011;65652;53.132;18.026;2023-05-07T02:55:59;16.20;;;8.50;;
76727;SDS011;65652;53.132;18.026;2023-05-07T02:58:27;19.60;;;9.80;;
76727;SDS011;65652;53.132;18.026;2023-05-07T03:00:54;19.00;;;9.70;;
76727;SDS011;65652;53.132;18.026;2023-05-07T03:03:50;17.50;;;9.70;;
76727;SDS011;65652;53.132;18.026;2023-05-07T03:06:17;19.60;;;10.00;;
76727;SDS011;65652;53.132;18.026;2023-05-07T03:08:43;18.50;;;9.60;;
76727;SDS011;65652;53.132;18.026;2023-05-07T03:11:10;20.20;;;9.80;;
76727;SDS011;65652;53.132;18.026;2023-05-07T03:13:37;21.60;;;11.30;;
76727;SDS011;65652;53.132;18.026;2023-05-07T03:16:04;19.80;;;10.20;;
76727;SDS011;65652;53.132;18.026;2023-05-07T03:18:31;21.60;;;10.10;;
76727;SDS011;65652;53.132;18.026;2023-05-07T03:20:58;19.40;;;9.40;;
76727;SDS011;65652;53.132;18.026;2023-05-07T03:23:25;20.50;;;10.00;;
76727;SDS011;65652;53.132;18.026;2023-05-07T03:25:52;17.50;;;9.50;;
76727;SDS011;65652;53.132;18.026;2023-05-07T03:28:19;18.60;;;8.90;;
76727;SDS011;65652;53.132;18.026;2023-05-07T03:30:51;19.50;;;10.30;;
76727;SDS011;65652;53.132;18.026;2023-05-07T03:33:18;18.50;;;9.90;;
76727;SDS011;65652;53.132;18.026;2023-05-07T03:35:45;17.50;;;9.70;;
76727;SDS011;65652;53.132;18.026;2023-05-07T03:38:14;18.60;;;10.50;;
76727;SDS011;65652;53.132;18.026;2023-05-07T03:40:41;20.50;;;10.40;;
76727;SDS011;65652;53.132;18.026;2023-05-07T03:43:08;18.70;;;9.20;;
76727;SDS011;65652;53.132;18.026;2023-05-07T03:45:36;17.90;;;9.90;;
76727;SDS011;65652;53.132;18.026;2023-05-07T03:48:10;19.50;;;10.10;;
76727;SDS011;65652;53.132;18.026;2023-05-07T03:50:38;18.70;;;9.90;;
76727;SDS011;65652;53.132;18.026;2023-05-07T03:53:05;18.40;;;10.10;;
76727;SDS011;65652;53.132;18.026;2023-05-07T03:55:33;18.60;;;9.70;;
76727;SDS011;65652;53.132;18.026;2023-05-07T03:58:00;18.60;;;10.20;;
76727;SDS011;65652;53.132;18.026;2023-05-07T04:00:27;21.40;;;10.50;;
76727;SDS011;65652;53.132;18.026;2023-05-07T04:02:58;18.90;;;9.50;;
76727;SDS011;65652;53.132;18.026;2023-05-07T04:05:27;19.50;;;10.70;;
76727;SDS011;65652;53.132;18.026;2023-05-07T04:07:58;16.40;;;9.60;;
76727;SDS011;65652;53.132;18.026;2023-05-07T04:10:29;19.40;;;10.40;;
76727;SDS011;65652;53.132;18.026;2023-05-07T04:12:57;21.80;;;10.30;;
76727;SDS011;65652;53.132;18.026;2023-05-07T04:15:24;18.50;;;9.50;;
76727;SDS011;65652;53.132;18.026;2023-05-07T04:17:51;20.90;;;10.40;;
76727;SDS011;65652;53.132;18.026;2023-05-07T04:20:19;19.30;;;10.70;;
76727;SDS011;65652;53.132;18.026;2023-05-07T04:22:49;19.30;;;10.50;;
76727;SDS011;65652;53.132;18.026;2023-05-07T04:25:16;19.00;;;9.90;;
76727;SDS011;65652;53.132;18.026;2023-05-07T04:27:43;18.70;;;10.40;;
76727;SDS011;65652;53.132;18.026;2023-05-07T04:30:10;18.30;;;9.70;;
76727;SDS011;65652;53.132;18.026;2023-05-07T04:32:38;20.70;;;10.00;;
76727;SDS011;65652;53.132;18.026;2023-05-07T04:35:05;20.80;;;9.90;;
76727;SDS011;65652;53.132;18.026;2023-05-07T04:37:33;18.10;;;9.80;;
76727;SDS011;65652;53.132;18.026;2023-05-07T04:40:01;19.00;;;9.60;;
76727;SDS011;65652;53.132;18.026;2023-05-07T04:42:29;18.50;;;9.10;;
76727;SDS011;65652;53.132;18.026;2023-05-07T04:44:56;19.70;;;9.40;;
76727;SDS011;65652;53.132;18.026;2023-05-07T04:47:23;19.30;;;10.70;;
76727;SDS011;65652;53.132;18.026;2023-05-07T04:49:51;20.00;;;9.90;;
76727;SDS011;65652;53.132;18.026;2023-05-07T04:52:17;21.30;;;9.60;;
76727;SDS011;65652;53.132;18.026;2023-05-07T04:54:44;20.00;;;10.00;;
76727;SDS011;65652;53.132;18.026;2023-05-07T04:57:12;19.40;;;9.80;;
76727;SDS011;65652;53.132;18.026;2023-05-07T04:59:39;19.50;;;10.40;;
76727;SDS011;65652;53.132;18.026;2023-05-07T05:02:06;19.00;;;9.90;;
76727;SDS011;65652;53.132;18.026;2023-05-07T05:04:33;18.50;;;9.70;;
76727;SDS011;65652;53.132;18.026;2023-05-07T05:07:01;18.70;;;9.20;;
76727;SDS011;65652;53.132;18.026;2023-05-07T05:09:30;20.00;;;9.80;;
76727;SDS011;65652;53.132;18.026;2023-05-07T05:11:58;23.20;;;10.80;;
76727;SDS011;65652;53.132;18.026;2023-05-07T05:14:26;18.50;;;9.60;;
76727;SDS011;65652;53.132;18.026;2023-05-07T05:16:53;16.90;;;9.50;;
76727;SDS011;65652;53.132;18.026;2023-05-07T05:19:20;19.90;;;9.80;;
76727;SDS011;65652;53.132;18.026;2023-05-07T05:21:47;21.40;;;10.20;;
76727;SDS011;65652;53.132;18.026;2023-05-07T05:24:14;16.30;;;9.30;;
76727;SDS011;65652;53.132;18.026;2023-05-07T05:26:41;18.00;;;9.50;;
76727;SDS011;65652;53.132;18.026;2023-05-07T05:29:08;20.80;;;10.30;;
76727;SDS011;65652;53.132;18.026;2023-05-07T05:31:36;19.30;;;9.40;;
76727;SDS011;65652;53.132;18.026;2023-05-07T05:34:03;18.50;;;9.30;;
76727;SDS011;65652;53.132;18.026;2023-05-07T05:36:30;17.10;;;9.80;;
76727;SDS011;65652;53.132;18.026;2023-05-07T05:38:57;16.40;;;9.40;;
76727;SDS011;65652;53.132;18.026;2023-05-07T05:41:24;18.20;;;9.20;;
76727;SDS011;65652;53.132;18.026;2023-05-07T05:43:51;17.40;;;8.90;;
76727;SDS011;65652;53.132;18.026;2023-05-07T05:46:18;17.60;;;9.60;;
76727;SDS011;65652;53.132;18.026;2023-05-07T05:51:13;15.90;;;8.80;;
76727;SDS011;65652;53.132;18.026;2023-05-07T05:53:40;17.40;;;8.50;;
76727;SDS011;65652;53.132;18.026;2023-05-07T05:56:07;22.90;;;9.10;;
76727;SDS011;65652;53.132;18.026;2023-05-07T05:58:35;16.90;;;8.50;;
76727;SDS011;65652;53.132;18.026;2023-05-07T06:01:04;14.90;;;7.70;;
76727;SDS011;65652;53.132;18.026;2023-05-07T06:03:31;15.40;;;7.90;;
76727;SDS011;65652;53.132;18.026;2023-05-07T06:06:00;17.30;;;7.80;;
76727;SDS011;65652;53.132;18.026;2023-05-07T06:08:30;15.30;;;7.80;;
76727;SDS011;65652;53.132;18.026;2023-05-07T06:10:58;12.60;;;6.90;;
76727;SDS011;65652;53.132;18.026;2023-05-07T06:13:25;13.90;;;7.60;;
76727;SDS011;65652;53.132;18.026;2023-05-07T06:15:52;14.60;;;7.50;;
76727;SDS011;65652;53.132;18.026;2023-05-07T06:18:20;10.90;;;6.50;;
76727;SDS011;65652;53.132;18.026;2023-05-07T06:20:47;15.00;;;6.80;;
76727;SDS011;65652;53.132;18.026;2023-05-07T06:23:21;11.30;;;6.00;;
76727;SDS011;65652;53.132;18.026;2023-05-07T06:25:48;11.20;;;6.10;;
76727;SDS011;65652;53.132;18.026;2023-05-07T06:28:17;12.50;;;6.20;;
76727;SDS011;65652;53.132;18.026;2023-05-07T06:30:44;11.90;;;6.20;;
76727;SDS011;65652;53.132;18.026;2023-05-07T06:33:11;12.40;;;6.00;;
76727;SDS011;65652;53.132;18.026;2023-05-07T06:35:38;12.90;;;6.20;;
76727;SDS011;65652;53.132;18.026;2023-05-07T06:38:05;10.70;;;5.30;;
76727;SDS011;65652;53.132;18.026;2023-05-07T06:40:33;11.50;;;6.40;;
76727;SDS011;65652;53.132;18.026;2023-05-07T06:43:00;11.20;;;6.40;;
76727;SDS011;65652;53.132;18.026;2023-05-07T06:45:49;12.40;;;5.90;;
76727;SDS011;65652;53.132;18.026;2023-05-07T06:48:16;9.40;;;5.70;;
76727;SDS011;65652;53.132;18.026;2023-05-07T06:50:52;10.00;;;4.50;;
76727;SDS011;65652;53.132;18.026;2023-05-07T06:53:19;9.60;;;4.20;;
76727;SDS011;65652;53.132;18.026;2023-05-07T06:55:46;11.60;;;5.70;;
76727;SDS011;65652;53.132;18.026;2023-05-07T06:58:14;9.90;;;5.20;;
76727;SDS011;65652;53.132;18.026;2023-05-07T07:00:41;10.90;;;5.10;;
76727;SDS011;65652;53.132;18.026;2023-05-07T07:03:07;10.70;;;4.70;;
76727;SDS011;65652;53.132;18.026;2023-05-07T07:05:35;9.60;;;4.90;;
76727;SDS011;65652;53.132;18.026;2023-05-07T07:08:02;11.50;;;5.30;;
76727;SDS011;65652;53.132;18.026;2023-05-07T07:10:29;8.50;;;4.80;;
76727;SDS011;65652;53.132;18.026;2023-05-07T07:12:56;10.90;;;4.80;;
76727;SDS011;65652;53.132;18.026;2023-05-07T07:15:23;10.60;;;4.90;;
76727;SDS011;65652;53.132;18.026;2023-05-07T07:20:18;9.60;;;5.30;;
76727;SDS011;65652;53.132;18.026;2023-05-07T07:22:45;10.20;;;5.10;;
76727;SDS011;65652;53.132;18.026;2023-05-07T07:25:12;10.70;;;5.10;;
76727;SDS011;65652;53.132;18.026;2023-05-07T07:27:39;10.10;;;5.30;;
76727;SDS011;65652;53.132;18.026;2023-05-07T07:30:07;9.80;;;5.20;;
76727;SDS011;65652;53.132;18.026;2023-05-07T07:32:35;10.10;;;5.50;;
76727;SDS011;65652;53.132;18.026;2023-05-07T07:35:04;10.80;;;5.50;;
76727;SDS011;65652;53.132;18.026;2023-05-07T07:37:32;9.60;;;4.80;;
76727;SDS011;65652;53.132;18.026;2023-05-07T07:39:59;9.20;;;4.60;;
76727;SDS011;65652;53.132;18.026;2023-05-07T07:42:26;11.30;;;5.00;;
76727;SDS011;65652;53.132;18.026;2023-05-07T07:44:53;9.00;;;4.40;;
76727;SDS011;65652;53.132;18.026;2023-05-07T07:47:22;8.70;;;4.10;;
76727;SDS011;65652;53.132;18.026;2023-05-07T07:49:49;8.00;;;3.80;;
76727;SDS011;65652;53.132;18.026;2023-05-07T07:52:16;6.60;;;3.60;;
76727;SDS011;65652;53.132;18.026;2023-05-07T07:54:44;7.60;;;2.70;;
76727;SDS011;65652;53.132;18.026;2023-05-07T07:57:11;7.20;;;3.50;;
76727;SDS011;65652;53.132;18.026;2023-05-07T07:59:38;6.70;;;3.20;;
76727;SDS011;65652;53.132;18.026;2023-05-07T08:02:06;6.20;;;3.10;;
76727;SDS011;65652;53.132;18.026;2023-05-07T08:04:34;9.20;;;3.20;;
76727;SDS011;65652;53.132;18.026;2023-05-07T08:07:06;6.40;;;3.10;;
76727;SDS011;65652;53.132;18.026;2023-05-07T08:09:34;6.60;;;2.90;;
76727;SDS011;65652;53.132;18.026;2023-05-07T08:12:02;6.40;;;3.40;;
76727;SDS011;65652;53.132;18.026;2023-05-07T08:14:30;6.00;;;3.00;;
76727;SDS011;65652;53.132;18.026;2023-05-07T08:16:59;5.50;;;2.50;;
76727;SDS011;65652;53.132;18.026;2023-05-07T08:19:27;6.20;;;2.80;;
76727;SDS011;65652;53.132;18.026;2023-05-07T08:21:54;5.60;;;2.60;;
76727;SDS011;65652;53.132;18.026;2023-05-07T08:24:23;5.80;;;2.50;;
76727;SDS011;65652;53.132;18.026;2023-05-07T08:26:52;7.10;;;2.40;;
76727;SDS011;65652;53.132;18.026;2023-05-07T08:29:22;5.30;;;2.40;;
76727;SDS011;65652;53.132;18.026;2023-05-07T08:31:49;5.60;;;2.40;;
76727;SDS011;65652;53.132;18.026;2023-05-07T08:34:16;5.50;;;2.40;;
76727;SDS011;65652;53.132;18.026;2023-05-07T08:36:44;6.10;;;2.50;;
76727;SDS011;65652;53.132;18.026;2023-05-07T08:39:15;4.70;;;2.50;;
76727;SDS011;65652;53.132;18.026;2023-05-07T08:41:44;5.80;;;2.30;;
76727;SDS011;65652;53.132;18.026;2023-05-07T08:44:14;6.00;;;2.20;;
76727;SDS011;65652;53.132;18.026;2023-05-07T08:46:47;5.40;;;2.10;;
76727;SDS011;65652;53.132;18.026;2023-05-07T08:49:18;4.70;;;2.30;;
76727;SDS011;65652;53.132;18.026;2023-05-07T08:51:46;4.70;;;2.00;;
76727;SDS011;65652;53.132;18.026;2023-05-07T08:54:15;6.10;;;2.50;;
76727;SDS011;65652;53.132;18.026;2023-05-07T08:56:43;7.30;;;2.30;;
76727;SDS011;65652;53.132;18.026;2023-05-07T08:59:10;5.20;;;2.30;;
76727;SDS011;65652;53.132;18.026;2023-05-07T09:01:37;5.30;;;2.20;;
76727;SDS011;65652;53.132;18.026;2023-05-07T09:04:06;5.80;;;2.40;;
76727;SDS011;65652;53.132;18.026;2023-05-07T09:06:34;6.70;;;2.40;;
76727;SDS011;65652;53.132;18.026;2023-05-07T09:09:01;5.80;;;2.30;;
76727;SDS011;65652;53.132;18.026;2023-05-07T09:11:29;6.20;;;2.30;;
76727;SDS011;65652;53.132;18.026;2023-05-07T09:13:58;5.70;;;2.50;;
76727;SDS011;65652;53.132;18.026;2023-05-07T09:16:32;4.50;;;2.10;;
76727;SDS011;65652;53.132;18.026;2023-05-07T09:18:59;5.20;;;2.10;;
76727;SDS011;65652;53.132;18.026;2023-05-07T09:21:30;5.70;;;2.00;;
76727;SDS011;65652;53.132;18.026;2023-05-07T09:23:58;5.00;;;2.20;;
76727;SDS011;65652;53.132;18.026;2023-05-07T09:26:30;5.00;;;2.40;;
76727;SDS011;65652;53.132;18.026;2023-05-07T09:28:59;7.20;;;3.30;;
76727;SDS011;65652;53.132;18.026;2023-05-07T09:31:26;5.70;;;2.40;;
76727;SDS011;65652;53.132;18.026;2023-05-07T09:33:54;6.00;;;2.50;;
76727;SDS011;65652;53.132;18.026;2023-05-07T09:36:23;5.90;;;2.10;;
76727;SDS011;65652;53.132;18.026;2023-05-07T09:38:50;6.50;;;2.30;;
76727;SDS011;65652;53.132;18.026;2023-05-07T09:41:17;5.50;;;2.10;;
76727;SDS011;65652;53.132;18.026;2023-05-07T09:43:53;4.90;;;2.20;;
76727;SDS011;65652;53.132;18.026;2023-05-07T09:46:25;4.90;;;2.50;;
76727;SDS011;65652;53.132;18.026;2023-05-07T09:48:57;8.80;;;2.70;;
76727;SDS011;65652;53.132;18.026;2023-05-07T09:51:33;5.20;;;2.00;;
76727;SDS011;65652;53.132;18.026;2023-05-07T09:54:12;5.10;;;2.40;;
76727;SDS011;65652;53.132;18.026;2023-05-07T09:56:40;6.00;;;2.60;;
76727;SDS011;65652;53.132;18.026;2023-05-07T09:59:10;5.90;;;2.60;;
76727;SDS011;65652;53.132;18.026;2023-05-07T10:01:40;5.70;;;2.70;;
76727;SDS011;65652;53.132;18.026;2023-05-07T10:04:11;6.30;;;2.30;;
76727;SDS011;65652;53.132;18.026;2023-05-07T10:06:39;8.20;;;2.70;;
76727;SDS011;65652;53.132;18.026;2023-05-07T10:09:07;6.20;;;2.90;;
76727;SDS011;65652;53.132;18.026;2023-05-07T10:11:35;6.30;;;2.90;;
76727;SDS011;65652;53.132;18.026;2023-05-07T10:14:03;6.70;;;2.90;;
76727;SDS011;65652;53.132;18.026;2023-05-07T10:16:33;6.20;;;2.50;;
76727;SDS011;65652;53.132;18.026;2023-05-07T10:19:03;5.30;;;2.90;;
76727;SDS011;65652;53.132;18.026;2023-05-07T10:21:36;5.50;;;2.40;;
76727;SDS011;65652;53.132;18.026;2023-05-07T10:24:20;5.50;;;2.60;;
76727;SDS011;65652;53.132;18.026;2023-05-07T10:26:52;7.00;;;2.70;;
76727;SDS011;65652;53.132;18.026;2023-05-07T10:29:30;6.10;;;2.20;;
76727;SDS011;65652;53.132;18.026;2023-05-07T10:34:49;6.90;;;2.70;;
76727;SDS011;65652;53.132;18.026;2023-05-07T10:37:20;6.00;;;2.50;;
76727;SDS011;65652;53.132;18.026;2023-05-07T10:39:49;5.40;;;2.50;;
76727;SDS011;65652;53.132;18.026;2023-05-07T10:42:16;6.30;;;2.70;;
76727;SDS011;65652;53.132;18.026;2023-05-07T10:44:47;4.90;;;2.10;;
76727;SDS011;65652;53.132;18.026;2023-05-07T10:47:21;6.40;;;2.70;;
76727;SDS011;65652;53.132;18.026;2023-05-07T10:52:24;4.90;;;2.30;;
76727;SDS011;65652;53.132;18.026;2023-05-07T11:01:47;6.30;;;2.60;;
76727;SDS011;65652;53.132;18.026;2023-05-07T11:04:17;6.30;;;2.30;;
76727;SDS011;65652;53.132;18.026;2023-05-07T11:15:15;5.70;;;2.50;;
76727;SDS011;65652;53.132;18.026;2023-05-07T11:18:00;4.40;;;2.40;;
76727;SDS011;65652;53.132;18.026;2023-05-07T11:20:47;6.60;;;2.80;;
76727;SDS011;65652;53.132;18.026;2023-05-07T11:26:30;5.00;;;2.40;;
76727;SDS011;65652;53.132;18.026;2023-05-07T11:28:59;4.70;;;2.40;;
76727;SDS011;65652;53.132;18.026;2023-05-07T11:31:27;5.40;;;2.60;;
76727;SDS011;65652;53.132;18.026;2023-05-07T11:33:56;5.10;;;2.60;;
76727;SDS011;65652;53.132;18.026;2023-05-07T11:36:25;5.80;;;2.70;;
76727;SDS011;65652;53.132;18.026;2023-05-07T11:38:57;5.20;;;2.20;;
76727;SDS011;65652;53.132;18.026;2023-05-07T11:41:33;4.70;;;2.10;;
76727;SDS011;65652;53.132;18.026;2023-05-07T11:44:02;7.20;;;2.70;;
76727;SDS011;65652;53.132;18.026;2023-05-07T11:46:29;5.70;;;2.60;;
76727;SDS011;65652;53.132;18.026;2023-05-07T11:48:57;5.20;;;2.30;;
76727;SDS011;65652;53.132;18.026;2023-05-07T11:51:24;5.20;;;2.60;;
76727;SDS011;65652;53.132;18.026;2023-05-07T11:53:53;5.20;;;2.50;;
76727;SDS011;65652;53.132;18.026;2023-05-07T11:56:20;6.10;;;2.60;;
76727;SDS011;65652;53.132;18.026;2023-05-07T11:58:47;7.40;;;3.20;;
76727;SDS011;65652;53.132;18.026;2023-05-07T12:01:15;6.10;;;2.80;;
76727;SDS011;65652;53.132;18.026;2023-05-07T12:03:43;6.20;;;2.80;;
76727;SDS011;65652;53.132;18.026;2023-05-07T12:06:14;5.70;;;2.90;;
76727;SDS011;65652;53.132;18.026;2023-05-07T12:08:43;5.90;;;2.90;;
76727;SDS011;65652;53.132;18.026;2023-05-07T12:11:22;5.50;;;2.40;;
76727;SDS011;65652;53.132;18.026;2023-05-07T12:13:49;5.10;;;2.30;;
76727;SDS011;65652;53.132;18.026;2023-05-07T12:16:17;5.50;;;2.00;;
76727;SDS011;65652;53.132;18.026;2023-05-07T12:21:11;6.40;;;3.20;;
76727;SDS011;65652;53.132;18.026;2023-05-07T12:26:06;4.50;;;2.20;;
76727;SDS011;65652;53.132;18.026;2023-05-07T12:28:37;5.00;;;2.20;;
76727;SDS011;65652;53.132;18.026;2023-05-07T12:31:07;4.90;;;2.20;;
76727;SDS011;65652;53.132;18.026;2023-05-07T12:33:34;4.40;;;1.90;;
76727;SDS011;65652;53.132;18.026;2023-05-07T12:36:07;5.30;;;1.90;;
76727;SDS011;65652;53.132;18.026;2023-05-07T12:38:35;4.50;;;2.10;;
76727;SDS011;65652;53.132;18.026;2023-05-07T12:41:03;5.60;;;2.30;;
76727;SDS011;65652;53.132;18.026;2023-05-07T12:43:31;4.90;;;1.80;;
76727;SDS011;65652;53.132;18.026;2023-05-07T12:46:00;4.60;;;2.10;;
76727;SDS011;65652;53.132;18.026;2023-05-07T12:48:28;4.60;;;1.80;;
76727;SDS011;65652;53.132;18.026;2023-05-07T12:50:56;4.50;;;2.20;;
76727;SDS011;65652;53.132;18.026;2023-05-07T12:53:24;4.60;;;1.90;;
76727;SDS011;65652;53.132;18.026;2023-05-07T12:55:53;4.70;;;1.90;;
76727;SDS011;65652;53.132;18.026;2023-05-07T12:58:26;4.60;;;2.00;;
76727;SDS011;65652;53.132;18.026;2023-05-07T13:00:55;5.30;;;2.10;;
76727;SDS011;65652;53.132;18.026;2023-05-07T13:03:25;4.40;;;1.80;;
76727;SDS011;65652;53.132;18.026;2023-05-07T13:05:55;6.90;;;2.20;;
76727;SDS011;65652;53.132;18.026;2023-05-07T13:10:52;4.10;;;1.70;;
76727;SDS011;65652;53.132;18.026;2023-05-07T13:13:20;4.70;;;2.00;;
76727;SDS011;65652;53.132;18.026;2023-05-07T13:15:47;4.40;;;1.80;;
76727;SDS011;65652;53.132;18.026;2023-05-07T13:20:41;4.50;;;1.70;;
76727;SDS011;65652;53.132;18.026;2023-05-07T13:23:08;4.20;;;1.80;;
76727;SDS011;65652;53.132;18.026;2023-05-07T13:25:35;4.30;;;1.80;;
76727;SDS011;65652;53.132;18.026;2023-05-07T13:28:01;5.00;;;2.00;;
76727;SDS011;65652;53.132;18.026;2023-05-07T13:30:29;5.10;;;2.00;;
76727;SDS011;65652;53.132;18.026;2023-05-07T13:32:56;4.90;;;1.80;;
76727;SDS011;65652;53.132;18.026;2023-05-07T13:35:22;6.50;;;2.20;;
76727;SDS011;65652;53.132;18.026;2023-05-07T13:37:49;6.20;;;2.10;;
76727;SDS011;65652;53.132;18.026;2023-05-07T13:40:18;5.70;;;1.80;;
76727;SDS011;65652;53.132;18.026;2023-05-07T13:45:12;4.00;;;1.80;;
76727;SDS011;65652;53.132;18.026;2023-05-07T13:47:41;5.00;;;1.80;;
76727;SDS011;65652;53.132;18.026;2023-05-07T13:50:08;4.40;;;1.70;;
76727;SDS011;65652;53.132;18.026;2023-05-07T13:52:37;5.40;;;2.00;;
76727;SDS011;65652;53.132;18.026;2023-05-07T13:55:06;5.10;;;2.00;;
76727;SDS011;65652;53.132;18.026;2023-05-07T13:57:34;5.00;;;1.80;;
76727;SDS011;65652;53.132;18.026;2023-05-07T14:00:01;4.80;;;1.80;;
76727;SDS011;65652;53.132;18.026;2023-05-07T14:02:29;4.20;;;1.90;;
76727;SDS011;65652;53.132;18.026;2023-05-07T14:04:55;6.10;;;1.90;;
76727;SDS011;65652;53.132;18.026;2023-05-07T14:07:22;5.10;;;2.00;;
76727;SDS011;65652;53.132;18.026;2023-05-07T14:09:49;4.90;;;1.90;;
76727;SDS011;65652;53.132;18.026;2023-05-07T14:12:16;4.40;;;1.90;;
76727;SDS011;65652;53.132;18.026;2023-05-07T14:14:43;3.80;;;1.60;;
76727;SDS011;65652;53.132;18.026;2023-05-07T14:17:10;4.10;;;1.80;;
76727;SDS011;65652;53.132;18.026;2023-05-07T14:19:37;4.20;;;1.70;;
76727;SDS011;65652;53.132;18.026;2023-05-07T14:24:31;5.40;;;1.90;;
76727;SDS011;65652;53.132;18.026;2023-05-07T14:26:58;5.10;;;2.10;;
76727;SDS011;65652;53.132;18.026;2023-05-07T14:29:24;4.20;;;2.00;;
76727;SDS011;65652;53.132;18.026;2023-05-07T14:31:52;4.20;;;1.70;;
76727;SDS011;65652;53.132;18.026;2023-05-07T14:34:19;5.50;;;1.90;;
76727;SDS011;65652;53.132;18.026;2023-05-07T14:36:45;5.00;;;1.90;;
76727;SDS011;65652;53.132;18.026;2023-05-07T14:39:12;7.00;;;1.90;;
76727;SDS011;65652;53.132;18.026;2023-05-07T14:41:39;4.30;;;1.60;;
76727;SDS011;65652;53.132;18.026;2023-05-07T14:44:06;4.20;;;1.90;;
76727;SDS011;65652;53.132;18.026;2023-05-07T14:46:33;4.40;;;1.70;;
76727;SDS011;65652;53.132;18.026;2023-05-07T14:51:28;4.10;;;1.50;;
76727;SDS011;65652;53.132;18.026;2023-05-07T14:53:55;4.50;;;1.90;;
76727;SDS011;65652;53.132;18.026;2023-05-07T14:56:22;4.40;;;1.90;;
76727;SDS011;65652;53.132;18.026;2023-05-07T14:58:49;4.50;;;1.80;;
76727;SDS011;65652;53.132;18.026;2023-05-07T15:01:16;4.40;;;2.00;;
76727;SDS011;65652;53.132;18.026;2023-05-07T15:03:43;4.40;;;1.90;;
76727;SDS011;65652;53.132;18.026;2023-05-07T15:06:10;4.80;;;1.90;;
76727;SDS011;65652;53.132;18.026;2023-05-07T15:08:36;4.20;;;1.90;;
76727;SDS011;65652;53.132;18.026;2023-05-07T15:11:03;4.40;;;1.90;;
76727;SDS011;65652;53.132;18.026;2023-05-07T15:13:30;4.40;;;2.00;;
76727;SDS011;65652;53.132;18.026;2023-05-07T15:15:57;4.60;;;1.80;;
76727;SDS011;65652;53.132;18.026;2023-05-07T15:18:24;4.50;;;2.00;;
76727;SDS011;65652;53.132;18.026;2023-05-07T15:20:51;4.30;;;1.90;;